LAS weather

McCarran International Airport
Las Vegas, Nevada, United States

Public forecast

Using degrees Fahrenheit for public forecast. Weather courtesy of forecast.io.

METAR (pilot weather report)

Report is more than 6 hours old.

Retrieved 2018/01/19 23:56 UTC (1 day ago):

KLAS 202356Z 32017G28KT 10SM SCT050 BKN080 BKN110 09/M04 A2992 RMK AO2 PK WND 33031/2342 SLP130 VIRGA DSNT SW-W 60000 T00941044 10122 20094 53026 $

TAF (pilot weather forecast)

Forecast is more than 12 hours old.

Retrieved 2018/01/20 00:24 UTC (1 day ago):

TAF KLAS 202320Z 2100/2206 33016G26KT P6SM VCSH SCT050 BKN080 BKN100 FM210200 31012G20KT P6SM FEW060 SCT100 FM211200 34008KT P6SM FEW250 FM211700 04007KT P6SM FEW250 FM212300 VRB05KT P6SM SCT250